Leeward Point Field
MUGM : now visible

Airfield :











YOU CAN JOIN US ON...

 
LOGIN :

Register | Disclaimer

   EN    FR    IT 

 









Legend :    VFR   Marginal VFR   IFR   Intensive IFR   Very Intensive IFR
Visi :
Ceiling :
>= 8 km
>= 3000ft
5 to 8 km
1000 to 3000 ft
1500m to 5 km
500 to 1000 ft
800 to 1500m
200 to 500 ft
< 800m
< 200 ft
Symbols :   Thunderstorms  Fog  Heavy snow  Heavy precipitations  Wind > 20 kt






- Airport Elevation : 56 ft
- IATA code : NBW


MUGM - Leeward Point Field

CURRENT METAR :
  • 271156Z 34006KT 9SM SCT025 SCT100 24/22 A3003 RMK SLP169 T02410219 10256 20228 53016

EXPIRED METARs :
  • 271056Z 01005KT 10SM FEW025 FEW100 23/22 A3001 RMK SLP161 T02280217
  • 270956Z 34005KT 10SM FEW025 A2998 RMK SLP154 T02280217

TAF TAF MUGM
Valid from the 27 at 07:00 until the 28 at 07:00 UTC


2707/2807 34006KT 9999 FEW040 QNH2998INS
BECMG 2714/2716 VRB04KT 9999 FEW040 FEW100 QNH3000INS
FM271700 23009KT 9999 VCSH FEW040 SCT100 QNH2997INS
FM272300 28005KT 9999 VCSH FEW020 SCT040 BKN100 QNH2995INS
FM280500 34010KT 9999 VCSH SCT020 BKN040 OVC100 QNH2997INS T22/2711Z T30/2717Z FN00085



MET'MAP, your aeronautical weather chart ! - Copyright ORBIFLY December 2007 - Disclaimer

ORBIFLY MET'MAP TEAM :

Programming & Development : Alexandra Zaïnal
Concept & original design : Baudouin d'Aumeries
Assistance for programming : Marc-Olivier Méhu
Technical & hardware support : Manuel Goepfert

Contact : metmap@orbifly.com




SOURCES & CREDITS :

   NOAA       Earth
Advisory